createdAt,value
2022-11-22T00:01:19.188Z,96597.91374985783
2022-11-22T00:04:19.735Z,96582.60689123691
2022-11-22T00:07:20.106Z,96551.64514986944
2022-11-22T00:11:17.075Z,96538.48762115686
2022-11-22T00:14:16.803Z,96516.66104984567
2022-11-22T00:17:17.044Z,96518.69349642583
2022-11-22T00:21:16.189Z,96481.45073488605
2022-11-22T00:24:16.470Z,96478.97344617786
2022-11-22T00:27:16.524Z,96457.44829017474
2022-11-22T00:31:16.482Z,96444.79131310282
2022-11-22T00:34:25.042Z,96429.76396013868
2022-11-22T00:37:16.608Z,96418.49173944567
2022-11-22T00:41:15.925Z,96388.15327129643
2022-11-22T00:44:16.210Z,96384.17212774501
2022-11-22T00:47:16.213Z,96362.20636678688
2022-11-22T00:51:16.309Z,96345.96022957502
2022-11-22T00:54:17.639Z,96335.02927921973
2022-11-22T00:57:16.793Z,96323.92745198462
2022-11-22T01:01:16.029Z,96327.09184836617
2022-11-22T01:04:17.999Z,96324.01567856147
2022-11-22T01:07:16.393Z,96316.1631863157
2022-11-22T01:11:18.527Z,96309.2496001996
2022-11-22T01:14:18.233Z,96305.00777038885
2022-11-22T01:17:17.267Z,96308.25957779739
2022-11-22T01:21:17.301Z,96295.6307061055
2022-11-22T01:24:16.390Z,96283.32067311804
2022-11-22T01:27:16.562Z,96293.0791922888
2022-11-22T01:31:16.635Z,96298.93860016007
2022-11-22T01:34:16.522Z,96276.8643549314
2022-11-22T01:37:16.800Z,96275.29832403532
2022-11-22T01:41:15.897Z,96285.01776772218
2022-11-22T01:44:19.919Z,96282.45351660154
2022-11-22T01:47:20.197Z,96271.9818385823
2022-11-22T01:51:23.985Z,96258.19908948707
2022-11-22T01:54:21.581Z,96248.15905666171
2022-11-22T01:57:21.781Z,96224.2905437755
2022-11-22T02:01:16.037Z,96222.55370569137
2022-11-22T02:04:18.219Z,96206.96991181283
2022-11-22T02:07:22.015Z,96195.84395418421
2022-11-22T02:11:19.303Z,96175.80190015759
2022-11-22T02:14:23.065Z,96162.33926844219
2022-11-22T02:17:17.020Z,96144.7244338831
2022-11-22T02:21:16.628Z,96123.1079882559
2022-11-22T02:24:22.464Z,96129.29419256581
2022-11-22T02:27:18.278Z,96121.81372835611
2022-11-22T02:31:47.747Z,96099.51560187236
2022-11-22T02:34:16.313Z,96070.49716995355
2022-11-22T02:37:20.005Z,96039.34123443182
2022-11-22T02:41:16.780Z,96005.6405832605
2022-11-22T02:44:18.610Z,95996.428402496
2022-11-22T02:47:16.294Z,95976.44081000498
2022-11-22T02:51:18.216Z,95945.44912925265
2022-11-22T02:54:16.649Z,95950.9889184785
2022-11-22T02:57:16.516Z,95957.17645238033
2022-11-22T03:01:16.056Z,95964.35452468178
2022-11-22T03:04:25.262Z,95973.21702930825
2022-11-22T03:07:17.456Z,96005.11651246766
2022-11-22T03:11:16.643Z,95998.61485985108
2022-11-22T03:14:16.863Z,95994.18836562104
2022-11-22T03:17:16.850Z,95998.12314217392
2022-11-22T03:21:17.106Z,96030.27776395783
2022-11-22T03:24:17.580Z,95990.58051661754
2022-11-22T03:27:18.098Z,95937.26078600921
2022-11-22T03:31:16.746Z,95870.6716605625
2022-11-22T03:34:17.426Z,95899.21152460724
2022-11-22T03:37:17.291Z,95897.55466805487
2022-11-22T03:41:15.693Z,95891.18989292778
2022-11-22T03:44:16.232Z,95875.67229853637
2022-11-22T03:47:16.306Z,95897.43364827361
2022-11-22T03:51:16.443Z,95886.77147435297
2022-11-22T03:54:16.464Z,95901.9875925308
2022-11-22T03:57:17.576Z,95865.1688784344
2022-11-22T04:01:17.028Z,95879.523537381
2022-11-22T04:04:16.716Z,95894.13831503474
2022-11-22T04:07:16.965Z,95861.17571497559
2022-11-22T04:11:16.756Z,95847.82963019206
2022-11-22T04:15:21.206Z,95850.36521437863
2022-11-22T04:17:42.723Z,95853.97753267881
2022-11-22T04:21:48.591Z,95813.37664672823
2022-11-22T04:25:21.652Z,95838.74497942955
2022-11-22T04:27:16.979Z,95795.17062210491
2022-11-22T04:41:17.254Z,95812.77890192316
2022-11-22T04:44:49.154Z,95812.81555373079
2022-11-22T04:48:08.570Z,95787.7416061238
2022-11-22T05:01:15.926Z,95785.78160937941
2022-11-22T05:04:16.346Z,95810.55984599292
2022-11-22T05:07:16.522Z,95743.96196195853
2022-11-22T05:11:16.937Z,95755.05098208667
2022-11-22T05:14:18.415Z,95734.95047892052
2022-11-22T05:17:17.151Z,95730.09858218218
2022-11-22T05:21:16.474Z,95675.25771157401
2022-11-22T05:24:16.681Z,95663.23278597827
2022-11-22T05:27:18.088Z,95638.37999915668
2022-11-22T05:31:19.206Z,95606.72244333276
2022-11-22T05:34:17.056Z,95609.00240443333
2022-11-22T05:37:16.946Z,95603.96222131337
2022-11-22T05:41:17.739Z,95628.41717482396
2022-11-22T05:44:16.759Z,95608.28579131393
2022-11-22T05:47:16.460Z,95618.4052870435
2022-11-22T05:51:18.995Z,95617.59455513256
2022-11-22T05:54:16.887Z,95583.47279843253
2022-11-22T05:57:16.832Z,95581.48079018272
2022-11-22T06:01:19.503Z,95571.84908192624
2022-11-22T06:04:18.051Z,95559.81956594801
2022-11-22T06:07:17.773Z,95551.47534246407
2022-11-22T06:11:18.262Z,95549.37442638462
2022-11-22T06:14:16.459Z,95529.63541964986
2022-11-22T06:17:16.420Z,95519.0697163357
2022-11-22T06:21:18.336Z,95480.43638004424
2022-11-22T06:24:17.134Z,95468.27924203225
2022-11-22T06:27:17.002Z,95470.25850810188
2022-11-22T06:31:18.180Z,95475.9043203911
2022-11-22T06:34:17.414Z,95452.93721264508
2022-11-22T06:37:18.012Z,95448.0002286872
2022-11-22T06:41:19.488Z,95471.75243550417
2022-11-22T06:44:16.834Z,95504.06665450807
2022-11-22T06:47:17.692Z,95504.25083610973
2022-11-22T06:51:18.257Z,95507.79840216067
2022-11-22T06:54:16.911Z,95493.07668852124
2022-11-22T06:57:16.832Z,95555.73175282373
2022-11-22T07:01:18.704Z,95562.00888621988
2022-11-22T07:04:16.608Z,95563.70419690998
2022-11-22T07:07:16.673Z,95552.71128563736
2022-11-22T07:11:17.722Z,95579.50541811454
2022-11-22T07:14:16.362Z,95568.18512423661
2022-11-22T07:17:16.139Z,95571.06302447148
2022-11-22T07:21:18.254Z,95575.13027572513
2022-11-22T07:24:16.854Z,95580.50745864028
2022-11-22T07:27:16.329Z,95589.31186412784
2022-11-22T07:31:19.443Z,95599.80380043053
2022-11-22T07:34:18.421Z,95591.21782904668
2022-11-22T07:37:17.058Z,95606.76935344693
2022-11-22T07:41:17.618Z,95599.90348085212
2022-11-22T07:44:39.048Z,95594.90732361111
2022-11-22T07:47:22.587Z,95591.30702206661
2022-11-22T07:51:16.560Z,95573.90394027221
2022-11-22T07:54:16.352Z,95565.41962248305
2022-11-22T07:57:16.633Z,95564.87742658798
2022-11-22T08:01:18.719Z,95587.07300837604
2022-11-22T08:04:18.049Z,95598.58701405521
2022-11-22T08:07:19.876Z,95625.42771340073
2022-11-22T08:11:16.358Z,95623.14711529338
2022-11-22T08:14:16.806Z,95605.60622668975
2022-11-22T08:17:16.693Z,95597.16502854659
2022-11-22T08:21:17.659Z,95593.29335378317
2022-11-22T08:24:16.644Z,95560.55664045934
2022-11-22T08:27:16.348Z,95556.18371832198
2022-11-22T08:31:18.249Z,95552.42022624807
2022-11-22T08:34:16.745Z,95552.41553515385
2022-11-22T08:37:16.865Z,95546.1384980983
2022-11-22T08:51:17.256Z,95563.24337886371
2022-11-22T08:54:16.642Z,95573.1352763132
2022-11-22T08:57:16.692Z,95581.56666064127
2022-11-22T09:01:18.018Z,95584.42185118145
2022-11-22T09:04:17.034Z,95583.92995102446
2022-11-22T09:11:18.476Z,95595.37753329784
2022-11-22T09:14:16.922Z,95566.50759699171
2022-11-22T09:17:18.296Z,95586.06529342658
2022-11-22T09:21:18.853Z,95596.37514641347
2022-11-22T09:24:17.681Z,95589.31961851032
2022-11-22T09:27:17.099Z,95588.55225259672
2022-11-22T09:31:18.991Z,95591.88875423557
2022-11-22T09:34:16.716Z,95580.5310914212
2022-11-22T09:37:18.911Z,95599.91496139205
2022-11-22T09:41:28.470Z,95610.81341980377
2022-11-22T09:44:24.293Z,95605.35178776659
2022-11-22T09:47:28.584Z,95601.05963957854
2022-11-22T09:51:25.133Z,95605.2675065505
2022-11-22T09:54:24.757Z,95601.59243282712
2022-11-22T09:57:23.290Z,95597.33281849524
2022-11-22T10:01:22.183Z,95615.82411422553
2022-11-22T10:04:21.584Z,95620.92335686859
2022-11-22T10:07:21.949Z,95623.62737335514
2022-11-22T10:11:32.171Z,95629.35270094757
2022-11-22T10:14:31.456Z,95632.57203755449
2022-11-22T10:17:27.517Z,95642.88844365
2022-11-22T10:21:18.259Z,95663.45156617597
2022-11-22T10:24:17.756Z,95662.75476787295
2022-11-22T10:27:16.561Z,95670.06252633719
2022-11-22T10:31:29.413Z,95693.10678389348
2022-11-22T10:34:27.902Z,95700.58848350651
2022-11-22T10:37:29.712Z,95714.33012611655
2022-11-22T10:41:30.611Z,95725.24154209724
2022-11-22T10:44:29.970Z,95750.19844578077
2022-11-22T10:47:34.347Z,95763.54686596815
2022-11-22T10:51:27.291Z,95784.1934037748
2022-11-22T10:54:26.719Z,95778.99900749396
2022-11-22T10:57:24.824Z,95778.13135926162
2022-11-22T11:11:17.992Z,95757.38293382984
2022-11-22T11:14:25.967Z,95754.782037393
2022-11-22T11:17:22.837Z,95746.49475584479
2022-11-22T11:21:29.881Z,95736.50788735074
2022-11-22T11:24:23.442Z,95728.14257173544
2022-11-22T11:27:29.940Z,95726.77284459627
2022-11-22T11:31:18.662Z,95725.59549847741
2022-11-22T11:34:23.168Z,95726.03681699517
2022-11-22T11:37:23.174Z,95718.67336463233
2022-11-22T11:41:23.541Z,95718.1927193399
2022-11-22T11:44:27.048Z,95721.28342248149
2022-11-22T11:47:19.181Z,95722.22060153303
2022-11-22T11:51:21.752Z,95705.80590961484
2022-11-22T11:54:19.357Z,95717.56690301788
2022-11-22T11:57:27.881Z,95725.88387567052
2022-11-22T12:01:19.077Z,95715.59526590015
2022-11-22T12:04:23.210Z,95718.45529760659
2022-11-22T12:07:19.399Z,95716.73309770656
2022-11-22T12:11:22.324Z,95717.11324610269
2022-11-22T12:14:27.847Z,95720.17233933388
2022-11-22T12:17:25.598Z,95716.77290430153
2022-11-22T12:21:25.505Z,95726.42552523891
2022-11-22T12:24:48.460Z,95726.83360814127
2022-11-22T12:27:16.813Z,95728.67475461152
2022-11-22T12:31:27.805Z,95725.39104656526
2022-11-22T12:34:23.742Z,95715.9781825804
2022-11-22T12:37:21.717Z,95717.87249993868
2022-11-22T12:41:20.477Z,95713.90649225125
2022-11-22T12:44:20.146Z,95704.86717461007
2022-11-22T12:47:23.271Z,95704.3213062109
2022-11-22T12:51:25.553Z,95709.76692601328
2022-11-22T12:54:22.454Z,95699.83717660756
2022-11-22T12:57:28.119Z,95687.56894570657
2022-11-22T13:01:22.062Z,95687.11952268783
2022-11-22T13:04:24.648Z,95679.79290658742
2022-11-22T13:07:25.112Z,95682.24564059003
2022-11-22T13:11:22.619Z,95696.93496484004
2022-11-22T13:14:22.458Z,95690.9220359203
2022-11-22T13:17:17.145Z,95680.64219065769
2022-11-22T13:21:25.961Z,95709.07497152353
2022-11-22T13:24:33.147Z,95710.72917298872
2022-11-22T13:27:23.505Z,95718.36277552068
2022-11-22T13:31:18.668Z,95715.15373990379
2022-11-22T13:34:24.838Z,95725.06325781402
2022-11-22T13:37:16.885Z,95732.71977344679
2022-11-22T13:41:26.018Z,95720.39475384132
2022-11-22T13:44:26.509Z,95722.13265080973
2022-11-22T13:47:49.989Z,95723.58668298977
2022-11-22T13:51:50.855Z,95725.89580871101
2022-11-22T13:55:29.397Z,95723.43857279196
2022-11-22T13:57:27.705Z,95735.07688171946
2022-11-22T14:01:58.174Z,95747.71005226177
2022-11-22T14:04:26.729Z,95745.57218432133
2022-11-22T14:07:30.442Z,95757.3777326814
2022-11-22T14:11:39.093Z,95752.79276691962
2022-11-22T14:14:28.961Z,95745.78398752562
2022-11-22T14:17:24.540Z,95747.8069341139
2022-11-22T14:21:38.647Z,95738.51051547425
2022-11-22T14:24:31.856Z,95736.04458291644
2022-11-22T14:27:30.132Z,95752.60041387932
2022-11-22T14:31:22.434Z,95759.56643621848
2022-11-22T14:34:20.125Z,95762.04041712344
2022-11-22T14:37:43.337Z,95767.94482515466
2022-11-22T14:41:49.772Z,95782.97668953199
2022-11-22T14:44:20.474Z,95777.87864995438
2022-11-22T14:47:18.382Z,95796.63817258974
2022-11-22T14:51:29.205Z,95790.18578527083
2022-11-22T14:54:24.655Z,95792.84446551213
2022-11-22T14:57:21.512Z,95788.70582961303
2022-11-22T15:01:34.518Z,95796.49177354299
2022-11-22T15:11:34.951Z,95809.90631133235
2022-11-22T16:01:20.094Z,95819.77445550574
2022-11-22T16:04:22.060Z,95787.28154019683
2022-11-22T16:07:27.189Z,95812.21696646548
2022-11-22T16:11:19.886Z,95816.97246575693
2022-11-22T16:14:41.778Z,95826.61823859783
2022-11-22T16:17:23.461Z,95850.47410759825
2022-11-22T16:21:22.524Z,95867.47777097873
2022-11-22T16:24:18.184Z,95867.7806691393
2022-11-22T16:27:17.928Z,95870.29337677736
2022-11-22T16:31:21.329Z,95879.65497041645
2022-11-22T16:34:18.027Z,95881.96088091357
2022-11-22T16:37:25.629Z,95889.71353355846
2022-11-22T16:41:19.939Z,95896.46256918079
2022-11-22T16:44:18.443Z,95909.23138397688
2022-11-22T16:47:18.963Z,95904.57447898069
2022-11-22T16:51:20.909Z,95914.09855383243
2022-11-22T16:54:19.387Z,95920.226234129
2022-11-22T16:57:17.173Z,95906.29703502319
2022-11-22T17:01:20.531Z,95930.93384989428
2022-11-22T17:04:22.305Z,95921.68729638628
2022-11-22T17:07:17.301Z,95936.85653492197
2022-11-22T17:11:18.640Z,95943.42365120527
2022-11-22T17:14:18.262Z,95955.35722769423
2022-11-22T17:17:16.855Z,95965.16060697757
2022-11-22T17:21:24.046Z,95955.47374787483
2022-11-22T17:24:20.094Z,95958.26077249643
2022-11-22T17:27:16.897Z,95961.72779664946
2022-11-22T17:31:18.606Z,95962.03099780282
2022-11-22T17:34:17.202Z,95944.61939223151
2022-11-22T17:37:17.578Z,95958.0912833
2022-11-22T17:41:16.465Z,95979.61620579028
2022-11-22T17:44:17.556Z,95988.81644136475
2022-11-22T17:47:16.663Z,95978.99020108538
2022-11-22T17:51:16.203Z,95961.27575387052
2022-11-22T17:54:17.082Z,95953.44500978617
2022-11-22T17:57:16.795Z,95959.4316869914
2022-11-22T18:01:18.102Z,95965.54001067732
2022-11-22T18:04:18.161Z,95976.9209657414
2022-11-22T18:07:16.840Z,95982.20235735839
2022-11-22T18:11:17.017Z,95994.53826136183
2022-11-22T18:14:16.938Z,95998.21389978385
2022-11-22T18:17:16.653Z,96013.66580055554
2022-11-22T18:21:17.771Z,96009.42197466681
2022-11-22T18:24:17.739Z,96007.4998174519
2022-11-22T18:27:17.838Z,95999.73666531101
2022-11-22T18:31:16.617Z,96036.70979699164
2022-11-22T18:34:17.778Z,96038.10037467399
2022-11-22T18:37:16.948Z,96041.21190383355
2022-11-22T18:41:17.491Z,96021.90132099189
2022-11-22T18:44:16.625Z,96048.57852089389
2022-11-22T18:47:17.258Z,96059.71043017795
2022-11-22T18:51:16.307Z,96045.88092685236
2022-11-22T18:54:18.297Z,96072.2266524018
2022-11-22T18:57:17.108Z,96097.01075394357
2022-11-22T19:01:19.119Z,96095.3258819976
2022-11-22T19:04:17.230Z,96101.71171288345
2022-11-22T19:07:17.495Z,96101.65058555666
2022-11-22T19:11:17.413Z,96079.38902907401
2022-11-22T19:14:17.259Z,96086.86730963884
2022-11-22T19:17:21.871Z,96101.60490663703
2022-11-22T19:21:20.046Z,96116.82634409335
2022-11-22T19:24:18.931Z,96122.21145610863
2022-11-22T19:27:19.931Z,96125.25442442026
2022-11-22T19:31:19.216Z,96142.00473021709
2022-11-22T19:34:17.392Z,96149.9030641049
2022-11-22T19:37:17.393Z,96140.39671001908
2022-11-22T19:41:18.340Z,96147.9966654878
2022-11-22T19:44:16.748Z,96157.05578497789
2022-11-22T19:47:16.450Z,96159.73888716508
2022-11-22T19:51:16.054Z,96166.96320581617
2022-11-22T19:54:16.394Z,96170.05242695703
2022-11-22T19:57:16.759Z,96173.64030621148
2022-11-22T20:01:18.178Z,96177.72181142298
2022-11-22T20:04:17.083Z,96189.1546548173
2022-11-22T20:07:18.559Z,96204.52081987052
2022-11-22T20:11:18.958Z,96230.02739936035
2022-11-22T20:14:17.053Z,96241.08274366416
2022-11-22T20:17:17.262Z,96246.16567107615
2022-11-22T20:21:21.806Z,96245.8657730376
2022-11-22T20:24:16.942Z,96245.00599141995
2022-11-22T20:27:24.495Z,96252.23428288131
2022-11-22T20:31:18.375Z,96244.55072612251
2022-11-22T20:34:16.462Z,96239.90285439973
2022-11-22T20:37:16.524Z,96243.17831632438
2022-11-22T20:41:18.693Z,96264.49953137037
2022-11-22T20:44:18.197Z,96275.65540353591
2022-11-22T20:47:16.692Z,96280.17579409588
2022-11-22T20:51:18.786Z,96284.16590471435
2022-11-22T20:54:18.378Z,96281.58582930522
2022-11-22T20:57:17.192Z,96273.15404184126
2022-11-22T21:01:19.441Z,96289.67160396067
2022-11-22T21:04:19.491Z,96308.65776844746
2022-11-22T21:07:17.940Z,96314.55613019111
2022-11-22T21:11:21.570Z,96328.25038361427
2022-11-22T21:14:16.996Z,96322.41249640082
2022-11-22T21:17:41.957Z,96314.43329216553
2022-11-22T21:21:24.746Z,96323.61727918655
2022-11-22T21:24:16.866Z,96336.11431180549
2022-11-22T21:27:16.633Z,96350.55806748511
2022-11-22T21:31:16.835Z,96350.37457396297
2022-11-22T21:34:16.346Z,96344.63972685544
2022-11-22T21:37:17.661Z,96333.39615088743
2022-11-22T21:41:38.683Z,96345.29497314862
2022-11-22T21:44:17.783Z,96342.97316752712
2022-11-22T21:47:17.392Z,96351.26690558104
2022-11-22T21:51:16.931Z,96359.40342425201
2022-11-22T21:54:17.258Z,96362.74152040847
2022-11-22T21:57:17.216Z,96364.6450255216
2022-11-22T22:01:16.700Z,96371.26206672219
2022-11-22T22:04:17.142Z,96376.46752769814
2022-11-22T22:07:36.476Z,96385.53375072166
2022-11-22T22:11:17.089Z,96388.63496013779
2022-11-22T22:14:26.992Z,96385.22215125397
2022-11-22T22:17:17.034Z,96388.35306634128
2022-11-22T22:21:18.364Z,96390.21396232174
2022-11-22T22:24:17.111Z,96404.3449079084
2022-11-22T22:27:17.313Z,96403.10099008188
2022-11-22T22:31:27.113Z,96404.63046001308
2022-11-22T22:34:18.604Z,96404.88350792644
2022-11-22T22:37:17.163Z,96413.76462765661
2022-11-22T22:41:17.186Z,96414.6719259475
2022-11-22T22:44:17.245Z,96417.98433595292
2022-11-22T22:47:17.067Z,96417.6456944245
2022-11-22T22:51:18.123Z,96433.71765021424
2022-11-22T22:54:16.931Z,96433.25680537416
2022-11-22T22:57:17.282Z,96436.71970475285
2022-11-22T23:01:20.239Z,96434.0748562638
2022-11-22T23:04:17.444Z,96438.84177885781
2022-11-22T23:07:24.449Z,96443.27912303507
2022-11-22T23:11:19.132Z,96444.73923244391
2022-11-22T23:14:20.091Z,96451.59451852778
2022-11-22T23:17:17.446Z,96455.1164501327
2022-11-22T23:21:16.236Z,96464.34780461164
2022-11-22T23:24:17.300Z,96472.81294184933
2022-11-22T23:27:16.431Z,96470.8681538047
2022-11-22T23:31:16.990Z,96470.81570895808
2022-11-22T23:34:17.665Z,96470.25720556226
2022-11-22T23:37:18.222Z,96471.38792821717
2022-11-22T23:41:18.759Z,96473.04134761837
2022-11-22T23:44:16.835Z,96475.52228612354
2022-11-22T23:47:16.902Z,96474.06597245333
2022-11-22T23:51:16.705Z,96478.9962884253
2022-11-22T23:54:16.861Z,96482.3601292514
2022-11-22T23:57:16.994Z,96490.67797203448
